Pagrindinis puslapis
METAR-TAF:

METAR-TAF

Oro uostai :

North Perry Airport

Hollywood, Florida, Jungtinės Amerikos Valstijos

platuma: 25-59-56N, ilguma: 080-14-28W, Aukštis: 2 m

Dabartinis oras

Ataskaita buvo paskelbta 46 minutes, ne 08:53 UTC
Ramus vėjas
Temperatūra 16°C
Drėgmė 88%
Slėgis 1013 hPa
Matomumas: 16.1 km
Su prošvaistėmis ne aukštis 6500 ft

METAR: KHWO 190853Z AUTO 00000KT 10SM BKN065 16/14 A2991 RMK AO2 SLP127 T01610139 53003

Laikas: 04:39 (09:39 UTC)


TAF: trūkstamas

Orai ataskaitas ir orų prognozės (METAR, TAF).

turimą stotys yra geltonos ir raudonos taškus žemėlapyje.

Perkelti pele per norėdami pamatyti stoties vardą.

Tada spustelėkite, norėdami matyti oro stebėjimo ir prognozės.

Norėdami pakeisti žemėlapį: spustelėkite ant žalios mygtukų su juodo kryžiaus žemyn,; žalią mygtuką su brūkšneliu, jei norite nutolinti; arba žalių rodyklių gretimoms žemėlapius.


METAR-TAF: